sensor_id;sensor_type;location;lat;lon;timestamp;P1;durP1;ratioP1;P2;durP2;ratioP2
18695;SDS011;22617;43.690;27.956;2023-07-30T00:02:32;3.72;;;2.90;;
18695;SDS011;22617;43.690;27.956;2023-07-30T00:07:36;4.80;;;3.08;;
18695;SDS011;22617;43.690;27.956;2023-07-30T00:12:39;4.50;;;3.15;;
18695;SDS011;22617;43.690;27.956;2023-07-30T00:17:45;4.30;;;3.00;;
18695;SDS011;22617;43.690;27.956;2023-07-30T00:22:48;4.75;;;3.08;;
18695;SDS011;22617;43.690;27.956;2023-07-30T00:27:52;4.07;;;2.83;;
18695;SDS011;22617;43.690;27.956;2023-07-30T00:32:57;3.33;;;3.00;;
18695;SDS011;22617;43.690;27.956;2023-07-30T00:38:00;5.68;;;3.22;;
18695;SDS011;22617;43.690;27.956;2023-07-30T00:43:04;5.07;;;3.85;;
18695;SDS011;22617;43.690;27.956;2023-07-30T00:48:09;4.47;;;2.92;;
18695;SDS011;22617;43.690;27.956;2023-07-30T00:53:13;4.70;;;3.00;;
18695;SDS011;22617;43.690;27.956;2023-07-30T00:58:18;4.53;;;3.40;;
18695;SDS011;22617;43.690;27.956;2023-07-30T01:03:25;4.82;;;3.35;;
18695;SDS011;22617;43.690;27.956;2023-07-30T01:08:28;5.57;;;3.55;;
18695;SDS011;22617;43.690;27.956;2023-07-30T01:13:32;5.80;;;3.33;;
18695;SDS011;22617;43.690;27.956;2023-07-30T01:18:38;4.95;;;3.40;;
18695;SDS011;22617;43.690;27.956;2023-07-30T01:23:43;6.05;;;3.47;;
18695;SDS011;22617;43.690;27.956;2023-07-30T01:28:48;6.82;;;3.53;;
18695;SDS011;22617;43.690;27.956;2023-07-30T01:33:54;8.35;;;3.90;;
18695;SDS011;22617;43.690;27.956;2023-07-30T01:39:01;5.75;;;3.45;;
18695;SDS011;22617;43.690;27.956;2023-07-30T01:44:05;5.18;;;3.70;;
18695;SDS011;22617;43.690;27.956;2023-07-30T01:49:09;3.97;;;3.55;;
18695;SDS011;22617;43.690;27.956;2023-07-30T01:54:13;6.90;;;4.18;;
18695;SDS011;22617;43.690;27.956;2023-07-30T01:59:17;5.47;;;3.60;;
18695;SDS011;22617;43.690;27.956;2023-07-30T02:04:21;5.70;;;3.97;;
18695;SDS011;22617;43.690;27.956;2023-07-30T02:09:26;5.80;;;3.60;;
18695;SDS011;22617;43.690;27.956;2023-07-30T02:14:29;5.53;;;3.85;;
18695;SDS011;22617;43.690;27.956;2023-07-30T02:19:37;4.18;;;3.75;;
18695;SDS011;22617;43.690;27.956;2023-07-30T02:24:42;8.73;;;3.95;;
18695;SDS011;22617;43.690;27.956;2023-07-30T02:29:46;4.65;;;3.53;;
18695;SDS011;22617;43.690;27.956;2023-07-30T02:34:50;6.13;;;4.25;;
18695;SDS011;22617;43.690;27.956;2023-07-30T02:39:55;6.72;;;4.13;;
18695;SDS011;22617;43.690;27.956;2023-07-30T02:44:59;4.50;;;3.78;;
18695;SDS011;22617;43.690;27.956;2023-07-30T02:50:05;4.95;;;3.65;;
18695;SDS011;22617;43.690;27.956;2023-07-30T02:55:10;4.03;;;3.63;;
18695;SDS011;22617;43.690;27.956;2023-07-30T03:00:14;3.70;;;3.25;;
18695;SDS011;22617;43.690;27.956;2023-07-30T03:05:17;3.80;;;3.20;;
18695;SDS011;22617;43.690;27.956;2023-07-30T03:10:23;6.05;;;3.60;;
18695;SDS011;22617;43.690;27.956;2023-07-30T03:15:26;5.05;;;3.60;;
18695;SDS011;22617;43.690;27.956;2023-07-30T03:20:30;4.15;;;3.40;;
18695;SDS011;22617;43.690;27.956;2023-07-30T03:25:35;4.85;;;3.60;;
18695;SDS011;22617;43.690;27.956;2023-07-30T03:30:39;4.93;;;3.53;;
18695;SDS011;22617;43.690;27.956;2023-07-30T03:35:42;3.28;;;2.97;;
18695;SDS011;22617;43.690;27.956;2023-07-30T03:40:47;4.38;;;3.97;;
18695;SDS011;22617;43.690;27.956;2023-07-30T03:45:51;4.53;;;3.40;;
18695;SDS011;22617;43.690;27.956;2023-07-30T03:50:54;5.05;;;3.70;;
18695;SDS011;22617;43.690;27.956;2023-07-30T03:56:00;5.88;;;3.95;;
18695;SDS011;22617;43.690;27.956;2023-07-30T04:01:04;5.45;;;4.00;;
18695;SDS011;22617;43.690;27.956;2023-07-30T04:06:08;7.68;;;3.70;;
18695;SDS011;22617;43.690;27.956;2023-07-30T04:11:13;4.90;;;3.28;;
18695;SDS011;22617;43.690;27.956;2023-07-30T04:16:17;3.80;;;2.47;;
18695;SDS011;22617;43.690;27.956;2023-07-30T04:21:21;2.92;;;2.63;;
18695;SDS011;22617;43.690;27.956;2023-07-30T04:26:25;6.90;;;3.28;;
18695;SDS011;22617;43.690;27.956;2023-07-30T04:31:29;5.22;;;3.30;;
18695;SDS011;22617;43.690;27.956;2023-07-30T04:36:34;6.03;;;3.17;;
18695;SDS011;22617;43.690;27.956;2023-07-30T04:41:39;6.93;;;4.25;;
18695;SDS011;22617;43.690;27.956;2023-07-30T04:46:43;7.05;;;3.15;;
18695;SDS011;22617;43.690;27.956;2023-07-30T04:51:47;7.07;;;2.78;;
18695;SDS011;22617;43.690;27.956;2023-07-30T04:56:53;5.32;;;2.80;;
18695;SDS011;22617;43.690;27.956;2023-07-30T05:01:56;6.10;;;2.85;;
18695;SDS011;22617;43.690;27.956;2023-07-30T05:07:00;3.30;;;3.00;;
18695;SDS011;22617;43.690;27.956;2023-07-30T05:12:05;3.15;;;2.45;;
18695;SDS011;22617;43.690;27.956;2023-07-30T05:17:09;4.72;;;2.80;;
18695;SDS011;22617;43.690;27.956;2023-07-30T05:22:13;3.72;;;2.30;;
18695;SDS011;22617;43.690;27.956;2023-07-30T05:27:18;3.25;;;2.38;;
18695;SDS011;22617;43.690;27.956;2023-07-30T05:32:21;3.85;;;2.60;;
18695;SDS011;22617;43.690;27.956;2023-07-30T05:37:25;3.88;;;2.60;;
18695;SDS011;22617;43.690;27.956;2023-07-30T05:42:30;5.30;;;2.55;;
18695;SDS011;22617;43.690;27.956;2023-07-30T05:47:34;5.43;;;2.13;;
18695;SDS011;22617;43.690;27.956;2023-07-30T05:52:37;3.95;;;2.60;;
18695;SDS011;22617;43.690;27.956;2023-07-30T05:57:42;3.58;;;2.75;;
18695;SDS011;22617;43.690;27.956;2023-07-30T06:02:46;3.72;;;2.72;;
18695;SDS011;22617;43.690;27.956;2023-07-30T06:07:50;3.05;;;2.40;;
18695;SDS011;22617;43.690;27.956;2023-07-30T06:12:55;4.65;;;2.50;;
18695;SDS011;22617;43.690;27.956;2023-07-30T06:18:00;5.22;;;2.40;;
18695;SDS011;22617;43.690;27.956;2023-07-30T06:23:04;3.75;;;2.90;;
18695;SDS011;22617;43.690;27.956;2023-07-30T06:28:08;3.90;;;2.50;;
18695;SDS011;22617;43.690;27.956;2023-07-30T06:33:12;3.03;;;2.25;;
18695;SDS011;22617;43.690;27.956;2023-07-30T06:38:15;3.40;;;2.40;;
18695;SDS011;22617;43.690;27.956;2023-07-30T06:43:20;4.07;;;2.70;;
18695;SDS011;22617;43.690;27.956;2023-07-30T06:48:24;3.47;;;2.28;;
18695;SDS011;22617;43.690;27.956;2023-07-30T06:53:27;4.18;;;2.33;;
18695;SDS011;22617;43.690;27.956;2023-07-30T06:58:33;2.47;;;2.28;;
18695;SDS011;22617;43.690;27.956;2023-07-30T07:03:40;3.25;;;2.55;;
18695;SDS011;22617;43.690;27.956;2023-07-30T07:08:43;4.75;;;2.35;;
18695;SDS011;22617;43.690;27.956;2023-07-30T07:13:48;2.88;;;2.33;;
18695;SDS011;22617;43.690;27.956;2023-07-30T07:18:52;2.40;;;2.20;;
18695;SDS011;22617;43.690;27.956;2023-07-30T07:23:55;2.53;;;2.10;;
18695;SDS011;22617;43.690;27.956;2023-07-30T07:29:00;3.88;;;2.47;;
18695;SDS011;22617;43.690;27.956;2023-07-30T07:34:04;3.92;;;2.40;;
18695;SDS011;22617;43.690;27.956;2023-07-30T07:39:07;5.28;;;2.55;;
18695;SDS011;22617;43.690;27.956;2023-07-30T07:44:12;4.22;;;2.80;;
18695;SDS011;22617;43.690;27.956;2023-07-30T07:49:15;2.30;;;1.98;;
18695;SDS011;22617;43.690;27.956;2023-07-30T07:54:19;2.67;;;2.05;;
18695;SDS011;22617;43.690;27.956;2023-07-30T07:59:24;3.28;;;1.92;;
18695;SDS011;22617;43.690;27.956;2023-07-30T08:04:29;3.60;;;1.95;;
18695;SDS011;22617;43.690;27.956;2023-07-30T08:09:33;3.60;;;2.03;;
18695;SDS011;22617;43.690;27.956;2023-07-30T08:14:38;2.75;;;1.85;;
18695;SDS011;22617;43.690;27.956;2023-07-30T08:19:41;2.47;;;1.80;;
18695;SDS011;22617;43.690;27.956;2023-07-30T08:24:45;2.92;;;2.15;;
18695;SDS011;22617;43.690;27.956;2023-07-30T08:29:50;2.05;;;1.83;;
18695;SDS011;22617;43.690;27.956;2023-07-30T08:34:53;4.20;;;2.50;;
18695;SDS011;22617;43.690;27.956;2023-07-30T08:39:57;2.30;;;2.10;;
18695;SDS011;22617;43.690;27.956;2023-07-30T08:45:02;2.30;;;2.10;;
18695;SDS011;22617;43.690;27.956;2023-07-30T08:50:09;3.17;;;2.22;;
18695;SDS011;22617;43.690;27.956;2023-07-30T08:55:13;2.15;;;1.95;;
18695;SDS011;22617;43.690;27.956;2023-07-30T09:00:18;2.28;;;1.90;;
18695;SDS011;22617;43.690;27.956;2023-07-30T09:05:26;2.47;;;2.10;;
18695;SDS011;22617;43.690;27.956;2023-07-30T09:10:31;3.72;;;1.92;;
18695;SDS011;22617;43.690;27.956;2023-07-30T09:15:36;2.22;;;1.83;;
18695;SDS011;22617;43.690;27.956;2023-07-30T09:20:41;2.78;;;1.75;;
18695;SDS011;22617;43.690;27.956;2023-07-30T09:25:47;2.10;;;1.83;;
18695;SDS011;22617;43.690;27.956;2023-07-30T09:30:53;4.03;;;1.92;;
18695;SDS011;22617;43.690;27.956;2023-07-30T09:36:22;3.97;;;2.03;;
18695;SDS011;22617;43.690;27.956;2023-07-30T09:41:26;2.42;;;1.70;;
18695;SDS011;22617;43.690;27.956;2023-07-30T09:46:31;2.08;;;1.70;;
18695;SDS011;22617;43.690;27.956;2023-07-30T09:51:35;2.65;;;1.73;;
18695;SDS011;22617;43.690;27.956;2023-07-30T09:56:41;3.30;;;1.73;;
18695;SDS011;22617;43.690;27.956;2023-07-30T10:01:47;3.03;;;1.80;;
18695;SDS011;22617;43.690;27.956;2023-07-30T10:06:53;2.80;;;1.77;;
18695;SDS011;22617;43.690;27.956;2023-07-30T10:11:59;2.00;;;1.80;;
18695;SDS011;22617;43.690;27.956;2023-07-30T10:17:09;2.88;;;1.98;;
18695;SDS011;22617;43.690;27.956;2023-07-30T10:22:20;2.03;;;1.83;;
18695;SDS011;22617;43.690;27.956;2023-07-30T10:27:26;2.92;;;1.80;;
18695;SDS011;22617;43.690;27.956;2023-07-30T10:32:38;3.00;;;2.10;;
18695;SDS011;22617;43.690;27.956;2023-07-30T10:37:44;2.25;;;1.80;;
18695;SDS011;22617;43.690;27.956;2023-07-30T10:42:50;3.03;;;1.85;;
18695;SDS011;22617;43.690;27.956;2023-07-30T10:47:58;1.95;;;1.75;;
18695;SDS011;22617;43.690;27.956;2023-07-30T10:53:07;2.70;;;1.80;;
18695;SDS011;22617;43.690;27.956;2023-07-30T10:58:11;5.28;;;2.10;;
18695;SDS011;22617;43.690;27.956;2023-07-30T11:03:18;1.88;;;1.63;;
18695;SDS011;22617;43.690;27.956;2023-07-30T11:08:21;2.30;;;1.73;;
18695;SDS011;22617;43.690;27.956;2023-07-30T11:13:36;2.53;;;1.80;;
18695;SDS011;22617;43.690;27.956;2023-07-30T11:18:42;2.30;;;1.90;;
18695;SDS011;22617;43.690;27.956;2023-07-30T11:23:46;4.60;;;1.63;;
18695;SDS011;22617;43.690;27.956;2023-07-30T11:28:49;1.85;;;1.50;;
18695;SDS011;22617;43.690;27.956;2023-07-30T11:33:54;4.07;;;1.83;;
18695;SDS011;22617;43.690;27.956;2023-07-30T11:38:58;2.63;;;1.60;;
18695;SDS011;22617;43.690;27.956;2023-07-30T11:44:03;1.50;;;1.40;;
18695;SDS011;22617;43.690;27.956;2023-07-30T11:49:12;2.20;;;1.33;;
18695;SDS011;22617;43.690;27.956;2023-07-30T11:54:20;3.95;;;1.73;;
18695;SDS011;22617;43.690;27.956;2023-07-30T11:59:24;2.17;;;1.60;;
18695;SDS011;22617;43.690;27.956;2023-07-30T12:04:42;3.28;;;1.85;;
18695;SDS011;22617;43.690;27.956;2023-07-30T12:09:51;2.78;;;1.90;;
18695;SDS011;22617;43.690;27.956;2023-07-30T12:14:55;2.15;;;1.88;;
18695;SDS011;22617;43.690;27.956;2023-07-30T12:20:01;5.25;;;1.95;;
18695;SDS011;22617;43.690;27.956;2023-07-30T12:25:09;3.72;;;2.40;;
18695;SDS011;22617;43.690;27.956;2023-07-30T12:35:15;2.25;;;1.58;;
18695;SDS011;22617;43.690;27.956;2023-07-30T12:40:18;2.30;;;2.08;;
18695;SDS011;22617;43.690;27.956;2023-07-30T12:45:22;2.10;;;1.58;;
18695;SDS011;22617;43.690;27.956;2023-07-30T12:50:27;2.53;;;1.60;;
18695;SDS011;22617;43.690;27.956;2023-07-30T12:55:31;1.50;;;1.40;;
18695;SDS011;22617;43.690;27.956;2023-07-30T13:00:34;7.40;;;1.70;;
18695;SDS011;22617;43.690;27.956;2023-07-30T13:05:39;1.65;;;1.48;;
18695;SDS011;22617;43.690;27.956;2023-07-30T13:10:43;2.35;;;1.50;;
18695;SDS011;22617;43.690;27.956;2023-07-30T13:15:47;2.30;;;1.42;;
18695;SDS011;22617;43.690;27.956;2023-07-30T13:20:52;2.63;;;1.50;;
18695;SDS011;22617;43.690;27.956;2023-07-30T13:25:55;2.25;;;1.40;;
18695;SDS011;22617;43.690;27.956;2023-07-30T13:30:59;3.38;;;1.40;;
18695;SDS011;22617;43.690;27.956;2023-07-30T13:36:04;2.35;;;1.25;;
18695;SDS011;22617;43.690;27.956;2023-07-30T13:41:10;2.40;;;1.40;;
18695;SDS011;22617;43.690;27.956;2023-07-30T13:46:14;1.92;;;1.40;;
18695;SDS011;22617;43.690;27.956;2023-07-30T13:51:19;1.88;;;1.40;;
18695;SDS011;22617;43.690;27.956;2023-07-30T13:56:22;2.03;;;1.50;;
18695;SDS011;22617;43.690;27.956;2023-07-30T14:01:26;2.20;;;1.30;;
18695;SDS011;22617;43.690;27.956;2023-07-30T14:06:31;2.35;;;1.25;;
18695;SDS011;22617;43.690;27.956;2023-07-30T14:11:34;1.50;;;1.40;;
18695;SDS011;22617;43.690;27.956;2023-07-30T14:16:40;4.30;;;1.50;;
18695;SDS011;22617;43.690;27.956;2023-07-30T14:21:50;1.70;;;1.35;;
18695;SDS011;22617;43.690;27.956;2023-07-30T14:26:53;2.90;;;1.42;;
18695;SDS011;22617;43.690;27.956;2023-07-30T14:31:57;2.00;;;1.50;;
18695;SDS011;22617;43.690;27.956;2023-07-30T14:37:02;2.65;;;1.52;;
18695;SDS011;22617;43.690;27.956;2023-07-30T14:42:05;1.65;;;1.45;;
18695;SDS011;22617;43.690;27.956;2023-07-30T14:47:09;1.58;;;1.30;;
18695;SDS011;22617;43.690;27.956;2023-07-30T14:52:15;3.28;;;1.60;;
18695;SDS011;22617;43.690;27.956;2023-07-30T14:57:18;1.58;;;1.27;;
18695;SDS011;22617;43.690;27.956;2023-07-30T15:02:23;4.28;;;2.13;;
18695;SDS011;22617;43.690;27.956;2023-07-30T15:07:55;2.05;;;1.50;;
18695;SDS011;22617;43.690;27.956;2023-07-30T15:12:58;3.17;;;1.60;;
18695;SDS011;22617;43.690;27.956;2023-07-30T15:18:02;5.30;;;1.40;;
18695;SDS011;22617;43.690;27.956;2023-07-30T15:23:09;1.70;;;1.25;;
18695;SDS011;22617;43.690;27.956;2023-07-30T15:28:13;1.63;;;1.33;;
18695;SDS011;22617;43.690;27.956;2023-07-30T15:33:31;1.55;;;1.30;;
18695;SDS011;22617;43.690;27.956;2023-07-30T15:39:14;2.95;;;1.48;;
18695;SDS011;22617;43.690;27.956;2023-07-30T15:44:48;2.92;;;1.50;;
18695;SDS011;22617;43.690;27.956;2023-07-30T15:49:51;3.05;;;1.40;;
18695;SDS011;22617;43.690;27.956;2023-07-30T15:54:56;1.92;;;1.30;;
18695;SDS011;22617;43.690;27.956;2023-07-30T16:00:00;2.33;;;1.55;;
18695;SDS011;22617;43.690;27.956;2023-07-30T16:05:13;2.95;;;1.30;;
18695;SDS011;22617;43.690;27.956;2023-07-30T16:10:18;1.90;;;1.30;;
18695;SDS011;22617;43.690;27.956;2023-07-30T16:15:25;3.03;;;1.20;;
18695;SDS011;22617;43.690;27.956;2023-07-30T16:20:29;3.30;;;1.65;;
18695;SDS011;22617;43.690;27.956;2023-07-30T16:25:35;4.15;;;1.40;;
18695;SDS011;22617;43.690;27.956;2023-07-30T16:30:39;2.13;;;1.20;;
18695;SDS011;22617;43.690;27.956;2023-07-30T16:35:42;2.83;;;1.65;;
18695;SDS011;22617;43.690;27.956;2023-07-30T16:40:47;1.55;;;1.33;;
18695;SDS011;22617;43.690;27.956;2023-07-30T16:45:51;2.67;;;1.25;;
18695;SDS011;22617;43.690;27.956;2023-07-30T16:50:54;3.40;;;1.27;;
18695;SDS011;22617;43.690;27.956;2023-07-30T16:55:59;1.38;;;1.00;;
18695;SDS011;22617;43.690;27.956;2023-07-30T17:01:11;2.42;;;1.23;;
18695;SDS011;22617;43.690;27.956;2023-07-30T17:06:15;1.42;;;1.10;;
18695;SDS011;22617;43.690;27.956;2023-07-30T17:11:20;2.63;;;1.25;;
18695;SDS011;22617;43.690;27.956;2023-07-30T17:16:24;1.27;;;1.10;;
18695;SDS011;22617;43.690;27.956;2023-07-30T17:21:27;1.88;;;1.20;;
18695;SDS011;22617;43.690;27.956;2023-07-30T17:26:32;3.50;;;1.33;;
18695;SDS011;22617;43.690;27.956;2023-07-30T17:31:36;2.33;;;1.30;;
18695;SDS011;22617;43.690;27.956;2023-07-30T17:36:39;1.33;;;1.23;;
18695;SDS011;22617;43.690;27.956;2023-07-30T17:41:45;2.88;;;1.30;;
18695;SDS011;22617;43.690;27.956;2023-07-30T17:46:48;2.78;;;1.70;;
18695;SDS011;22617;43.690;27.956;2023-07-30T17:51:52;1.90;;;1.30;;
18695;SDS011;22617;43.690;27.956;2023-07-30T17:56:58;3.05;;;1.60;;
18695;SDS011;22617;43.690;27.956;2023-07-30T18:02:01;2.97;;;1.45;;
18695;SDS011;22617;43.690;27.956;2023-07-30T18:07:05;2.60;;;1.45;;
18695;SDS011;22617;43.690;27.956;2023-07-30T18:12:10;3.40;;;1.42;;
18695;SDS011;22617;43.690;27.956;2023-07-30T18:17:14;3.70;;;1.63;;
18695;SDS011;22617;43.690;27.956;2023-07-30T18:22:17;1.70;;;1.40;;
18695;SDS011;22617;43.690;27.956;2023-07-30T18:27:22;3.22;;;1.75;;
18695;SDS011;22617;43.690;27.956;2023-07-30T18:32:26;3.72;;;1.65;;
18695;SDS011;22617;43.690;27.956;2023-07-30T18:37:31;3.85;;;1.90;;
18695;SDS011;22617;43.690;27.956;2023-07-30T18:42:36;3.15;;;1.83;;
18695;SDS011;22617;43.690;27.956;2023-07-30T18:47:41;4.32;;;1.90;;
18695;SDS011;22617;43.690;27.956;2023-07-30T18:52:45;2.90;;;1.90;;
18695;SDS011;22617;43.690;27.956;2023-07-30T18:57:50;3.45;;;2.00;;
18695;SDS011;22617;43.690;27.956;2023-07-30T19:02:54;3.67;;;2.10;;
18695;SDS011;22617;43.690;27.956;2023-07-30T19:07:58;3.42;;;2.13;;
18695;SDS011;22617;43.690;27.956;2023-07-30T19:13:05;3.08;;;2.03;;
18695;SDS011;22617;43.690;27.956;2023-07-30T19:18:09;6.03;;;2.30;;
18695;SDS011;22617;43.690;27.956;2023-07-30T19:23:12;3.20;;;2.10;;
18695;SDS011;22617;43.690;27.956;2023-07-30T19:28:18;3.30;;;2.22;;
18695;SDS011;22617;43.690;27.956;2023-07-30T19:33:22;4.78;;;2.13;;
18695;SDS011;22617;43.690;27.956;2023-07-30T19:38:26;3.05;;;1.85;;
18695;SDS011;22617;43.690;27.956;2023-07-30T19:43:33;5.03;;;2.20;;
18695;SDS011;22617;43.690;27.956;2023-07-30T19:48:36;2.30;;;2.10;;
18695;SDS011;22617;43.690;27.956;2023-07-30T19:53:40;5.72;;;2.40;;
18695;SDS011;22617;43.690;27.956;2023-07-30T19:58:45;3.95;;;2.25;;
18695;SDS011;22617;43.690;27.956;2023-07-30T20:03:49;2.80;;;2.08;;
18695;SDS011;22617;43.690;27.956;2023-07-30T20:08:53;2.80;;;2.05;;
18695;SDS011;22617;43.690;27.956;2023-07-30T20:13:58;2.60;;;2.22;;
18695;SDS011;22617;43.690;27.956;2023-07-30T20:19:02;3.53;;;2.00;;
18695;SDS011;22617;43.690;27.956;2023-07-30T20:24:05;3.38;;;2.20;;
18695;SDS011;22617;43.690;27.956;2023-07-30T20:29:10;3.20;;;2.42;;
18695;SDS011;22617;43.690;27.956;2023-07-30T20:34:14;3.70;;;2.22;;
18695;SDS011;22617;43.690;27.956;2023-07-30T20:39:17;2.83;;;2.08;;
18695;SDS011;22617;43.690;27.956;2023-07-30T20:44:22;3.80;;;2.25;;
18695;SDS011;22617;43.690;27.956;2023-07-30T20:49:26;2.33;;;2.03;;
18695;SDS011;22617;43.690;27.956;2023-07-30T20:54:33;3.05;;;2.08;;
18695;SDS011;22617;43.690;27.956;2023-07-30T20:59:39;3.50;;;2.00;;
18695;SDS011;22617;43.690;27.956;2023-07-30T21:04:43;2.05;;;1.85;;
18695;SDS011;22617;43.690;27.956;2023-07-30T21:09:47;2.55;;;1.88;;
18695;SDS011;22617;43.690;27.956;2023-07-30T21:14:52;3.92;;;1.90;;
18695;SDS011;22617;43.690;27.956;2023-07-30T21:19:56;4.40;;;2.13;;
18695;SDS011;22617;43.690;27.956;2023-07-30T21:24:59;3.10;;;2.25;;
18695;SDS011;22617;43.690;27.956;2023-07-30T21:30:06;3.00;;;2.08;;
18695;SDS011;22617;43.690;27.956;2023-07-30T21:35:10;6.10;;;2.70;;
18695;SDS011;22617;43.690;27.956;2023-07-30T21:40:14;5.03;;;2.40;;
18695;SDS011;22617;43.690;27.956;2023-07-30T21:45:19;4.40;;;2.55;;
18695;SDS011;22617;43.690;27.956;2023-07-30T21:50:22;4.60;;;2.80;;
18695;SDS011;22617;43.690;27.956;2023-07-30T21:55:26;3.13;;;2.42;;
18695;SDS011;22617;43.690;27.956;2023-07-30T22:00:31;4.53;;;2.60;;
18695;SDS011;22617;43.690;27.956;2023-07-30T22:05:35;8.18;;;3.13;;
18695;SDS011;22617;43.690;27.956;2023-07-30T22:10:40;4.93;;;2.60;;
18695;SDS011;22617;43.690;27.956;2023-07-30T22:15:46;4.30;;;2.45;;
18695;SDS011;22617;43.690;27.956;2023-07-30T22:20:50;7.70;;;2.83;;
18695;SDS011;22617;43.690;27.956;2023-07-30T22:25:53;4.50;;;2.70;;
18695;SDS011;22617;43.690;27.956;2023-07-30T22:30:58;5.18;;;2.85;;
18695;SDS011;22617;43.690;27.956;2023-07-30T22:36:02;2.70;;;2.38;;
18695;SDS011;22617;43.690;27.956;2023-07-30T22:41:06;4.50;;;2.83;;
18695;SDS011;22617;43.690;27.956;2023-07-30T22:46:11;4.95;;;2.70;;
18695;SDS011;22617;43.690;27.956;2023-07-30T22:51:15;5.47;;;2.88;;
18695;SDS011;22617;43.690;27.956;2023-07-30T22:56:18;3.90;;;2.97;;
18695;SDS011;22617;43.690;27.956;2023-07-30T23:01:23;4.78;;;2.90;;
18695;SDS011;22617;43.690;27.956;2023-07-30T23:06:27;3.70;;;2.80;;
18695;SDS011;22617;43.690;27.956;2023-07-30T23:11:31;6.10;;;2.90;;
18695;SDS011;22617;43.690;27.956;2023-07-30T23:16:36;3.67;;;2.92;;
18695;SDS011;22617;43.690;27.956;2023-07-30T23:21:40;3.13;;;2.60;;
18695;SDS011;22617;43.690;27.956;2023-07-30T23:26:43;3.53;;;2.75;;
18695;SDS011;22617;43.690;27.956;2023-07-30T23:31:48;4.25;;;2.65;;
18695;SDS011;22617;43.690;27.956;2023-07-30T23:36:52;4.50;;;2.70;;
18695;SDS011;22617;43.690;27.956;2023-07-30T23:41:55;3.22;;;2.60;;
18695;SDS011;22617;43.690;27.956;2023-07-30T23:47:00;4.53;;;2.67;;
18695;SDS011;22617;43.690;27.956;2023-07-30T23:52:04;5.20;;;2.85;;
18695;SDS011;22617;43.690;27.956;2023-07-30T23:57:09;4.15;;;3.10;;
